sensor_id;sensor_type;location;lat;lon;timestamp;P1;durP1;ratioP1;P2;durP2;ratioP2
17890;SDS011;9071;48.220;14.480;2024-02-15T00:04:36;31.70;;;18.20;;
17890;SDS011;9071;48.220;14.480;2024-02-15T00:09:39;30.40;;;17.57;;
17890;SDS011;9071;48.220;14.480;2024-02-15T00:14:41;34.17;;;17.40;;
17890;SDS011;9071;48.220;14.480;2024-02-15T00:19:43;28.77;;;16.03;;
17890;SDS011;9071;48.220;14.480;2024-02-15T00:24:48;28.37;;;17.27;;
17890;SDS011;9071;48.220;14.480;2024-02-15T00:29:51;29.53;;;17.10;;
17890;SDS011;9071;48.220;14.480;2024-02-15T00:34:53;32.73;;;18.23;;
17890;SDS011;9071;48.220;14.480;2024-02-15T00:39:56;32.33;;;18.53;;
17890;SDS011;9071;48.220;14.480;2024-02-15T00:44:58;32.03;;;17.60;;
17890;SDS011;9071;48.220;14.480;2024-02-15T00:50:00;37.07;;;18.13;;
17890;SDS011;9071;48.220;14.480;2024-02-15T00:55:05;35.53;;;17.17;;
17890;SDS011;9071;48.220;14.480;2024-02-15T01:00:08;29.43;;;17.87;;
17890;SDS011;9071;48.220;14.480;2024-02-15T01:05:10;26.77;;;17.57;;
17890;SDS011;9071;48.220;14.480;2024-02-15T01:10:17;28.13;;;16.37;;
17890;SDS011;9071;48.220;14.480;2024-02-15T01:15:19;28.47;;;17.13;;
17890;SDS011;9071;48.220;14.480;2024-02-15T01:20:21;30.07;;;17.60;;
17890;SDS011;9071;48.220;14.480;2024-02-15T01:25:25;30.57;;;16.93;;
17890;SDS011;9071;48.220;14.480;2024-02-15T01:30:28;28.10;;;16.07;;
17890;SDS011;9071;48.220;14.480;2024-02-15T01:35:30;36.07;;;18.47;;
17890;SDS011;9071;48.220;14.480;2024-02-15T01:40:34;39.33;;;20.97;;
17890;SDS011;9071;48.220;14.480;2024-02-15T01:45:36;38.23;;;19.53;;
17890;SDS011;9071;48.220;14.480;2024-02-15T01:50:38;35.53;;;16.97;;
17890;SDS011;9071;48.220;14.480;2024-02-15T01:55:42;32.37;;;17.37;;
17890;SDS011;9071;48.220;14.480;2024-02-15T02:00:44;33.13;;;17.90;;
17890;SDS011;9071;48.220;14.480;2024-02-15T02:05:46;27.50;;;16.93;;
17890;SDS011;9071;48.220;14.480;2024-02-15T02:10:50;29.30;;;17.33;;
17890;SDS011;9071;48.220;14.480;2024-02-15T02:15:53;40.43;;;19.83;;
17890;SDS011;9071;48.220;14.480;2024-02-15T02:20:56;32.13;;;19.07;;
17890;SDS011;9071;48.220;14.480;2024-02-15T02:26:00;31.57;;;18.07;;
17890;SDS011;9071;48.220;14.480;2024-02-15T02:31:02;33.13;;;18.83;;
17890;SDS011;9071;48.220;14.480;2024-02-15T02:36:04;26.70;;;15.77;;
17890;SDS011;9071;48.220;14.480;2024-02-15T02:41:11;29.67;;;16.30;;
17890;SDS011;9071;48.220;14.480;2024-02-15T02:46:13;28.33;;;15.90;;
17890;SDS011;9071;48.220;14.480;2024-02-15T02:51:15;25.57;;;15.97;;
17890;SDS011;9071;48.220;14.480;2024-02-15T02:56:19;29.70;;;16.20;;
17890;SDS011;9071;48.220;14.480;2024-02-15T03:01:22;27.97;;;15.07;;
17890;SDS011;9071;48.220;14.480;2024-02-15T03:06:26;22.47;;;14.53;;
17890;SDS011;9071;48.220;14.480;2024-02-15T03:11:29;25.27;;;15.30;;
17890;SDS011;9071;48.220;14.480;2024-02-15T03:16:32;21.77;;;13.83;;
17890;SDS011;9071;48.220;14.480;2024-02-15T03:21:35;21.20;;;14.27;;
17890;SDS011;9071;48.220;14.480;2024-02-15T03:26:38;23.67;;;14.10;;
17890;SDS011;9071;48.220;14.480;2024-02-15T03:31:40;19.67;;;13.60;;
17890;SDS011;9071;48.220;14.480;2024-02-15T03:36:42;24.07;;;13.53;;
17890;SDS011;9071;48.220;14.480;2024-02-15T03:41:46;20.10;;;12.53;;
17890;SDS011;9071;48.220;14.480;2024-02-15T03:46:48;21.83;;;14.47;;
17890;SDS011;9071;48.220;14.480;2024-02-15T03:51:52;25.43;;;15.97;;
17890;SDS011;9071;48.220;14.480;2024-02-15T03:56:56;27.77;;;16.40;;
17890;SDS011;9071;48.220;14.480;2024-02-15T04:01:58;29.90;;;15.03;;
17890;SDS011;9071;48.220;14.480;2024-02-15T04:07:03;23.23;;;14.97;;
17890;SDS011;9071;48.220;14.480;2024-02-15T04:12:06;25.73;;;13.80;;
17890;SDS011;9071;48.220;14.480;2024-02-15T04:17:09;26.47;;;14.57;;
17890;SDS011;9071;48.220;14.480;2024-02-15T04:22:11;22.40;;;13.57;;
17890;SDS011;9071;48.220;14.480;2024-02-15T04:27:14;26.43;;;14.80;;
17890;SDS011;9071;48.220;14.480;2024-02-15T04:32:21;23.60;;;14.50;;
17890;SDS011;9071;48.220;14.480;2024-02-15T04:37:23;25.73;;;14.10;;
17890;SDS011;9071;48.220;14.480;2024-02-15T04:42:30;22.67;;;14.03;;
17890;SDS011;9071;48.220;14.480;2024-02-15T04:47:34;23.63;;;14.07;;
17890;SDS011;9071;48.220;14.480;2024-02-15T04:52:36;21.27;;;13.83;;
17890;SDS011;9071;48.220;14.480;2024-02-15T04:57:40;23.03;;;13.40;;
17890;SDS011;9071;48.220;14.480;2024-02-15T05:02:42;26.17;;;14.13;;
17890;SDS011;9071;48.220;14.480;2024-02-15T05:07:44;22.57;;;13.17;;
17890;SDS011;9071;48.220;14.480;2024-02-15T05:12:50;21.37;;;13.47;;
17890;SDS011;9071;48.220;14.480;2024-02-15T05:17:53;27.63;;;14.43;;
17890;SDS011;9071;48.220;14.480;2024-02-15T05:22:56;23.03;;;14.40;;
17890;SDS011;9071;48.220;14.480;2024-02-15T05:27:59;20.80;;;13.20;;
17890;SDS011;9071;48.220;14.480;2024-02-15T05:33:01;21.10;;;14.00;;
17890;SDS011;9071;48.220;14.480;2024-02-15T05:38:04;24.03;;;14.03;;
17890;SDS011;9071;48.220;14.480;2024-02-15T05:43:08;24.70;;;14.60;;
17890;SDS011;9071;48.220;14.480;2024-02-15T05:48:10;23.77;;;15.70;;
17890;SDS011;9071;48.220;14.480;2024-02-15T05:53:12;23.80;;;14.63;;
17890;SDS011;9071;48.220;14.480;2024-02-15T05:58:16;30.50;;;15.60;;
17890;SDS011;9071;48.220;14.480;2024-02-15T06:03:18;28.77;;;15.13;;
17890;SDS011;9071;48.220;14.480;2024-02-15T06:08:22;30.67;;;15.40;;
17890;SDS011;9071;48.220;14.480;2024-02-15T06:13:26;25.07;;;15.57;;
17890;SDS011;9071;48.220;14.480;2024-02-15T06:18:28;26.20;;;14.77;;
17890;SDS011;9071;48.220;14.480;2024-02-15T06:23:33;22.77;;;14.47;;
17890;SDS011;9071;48.220;14.480;2024-02-15T06:28:37;26.93;;;15.07;;
17890;SDS011;9071;48.220;14.480;2024-02-15T06:33:56;23.37;;;15.33;;
17890;SDS011;9071;48.220;14.480;2024-02-15T06:39:16;25.87;;;16.53;;
17890;SDS011;9071;48.220;14.480;2024-02-15T06:44:37;24.10;;;16.03;;
17890;SDS011;9071;48.220;14.480;2024-02-15T06:49:40;40.83;;;23.57;;
17890;SDS011;9071;48.220;14.480;2024-02-15T06:54:44;30.93;;;17.70;;
17890;SDS011;9071;48.220;14.480;2024-02-15T06:59:47;39.63;;;17.20;;
17890;SDS011;9071;48.220;14.480;2024-02-15T07:04:50;30.17;;;17.50;;
17890;SDS011;9071;48.220;14.480;2024-02-15T07:09:52;31.70;;;16.17;;
17890;SDS011;9071;48.220;14.480;2024-02-15T07:14:55;33.40;;;18.47;;
17890;SDS011;9071;48.220;14.480;2024-02-15T07:19:58;29.83;;;16.87;;
17890;SDS011;9071;48.220;14.480;2024-02-15T07:25:00;28.30;;;17.93;;
17890;SDS011;9071;48.220;14.480;2024-02-15T07:30:05;28.90;;;20.90;;
17890;SDS011;9071;48.220;14.480;2024-02-15T07:35:09;19.80;;;14.03;;
17890;SDS011;9071;48.220;14.480;2024-02-15T07:40:11;26.47;;;15.23;;
17890;SDS011;9071;48.220;14.480;2024-02-15T07:45:15;19.87;;;12.57;;
17890;SDS011;9071;48.220;14.480;2024-02-15T07:50:18;20.77;;;12.67;;
17890;SDS011;9071;48.220;14.480;2024-02-15T07:55:22;22.67;;;13.57;;
17890;SDS011;9071;48.220;14.480;2024-02-15T08:00:26;20.83;;;13.87;;
17890;SDS011;9071;48.220;14.480;2024-02-15T08:05:28;25.73;;;13.70;;
17890;SDS011;9071;48.220;14.480;2024-02-15T08:10:30;17.80;;;12.17;;
17890;SDS011;9071;48.220;14.480;2024-02-15T08:15:34;16.33;;;9.97;;
17890;SDS011;9071;48.220;14.480;2024-02-15T08:20:36;18.47;;;11.53;;
17890;SDS011;9071;48.220;14.480;2024-02-15T08:25:40;17.50;;;10.60;;
17890;SDS011;9071;48.220;14.480;2024-02-15T08:30:43;12.90;;;8.17;;
17890;SDS011;9071;48.220;14.480;2024-02-15T08:35:47;11.70;;;8.60;;
17890;SDS011;9071;48.220;14.480;2024-02-15T08:40:49;16.93;;;9.23;;
17890;SDS011;9071;48.220;14.480;2024-02-15T08:45:53;18.60;;;9.13;;
17890;SDS011;9071;48.220;14.480;2024-02-15T08:50:55;17.70;;;9.80;;
17890;SDS011;9071;48.220;14.480;2024-02-15T08:55:57;17.37;;;9.50;;
17890;SDS011;9071;48.220;14.480;2024-02-15T09:01:00;15.70;;;9.30;;
17890;SDS011;9071;48.220;14.480;2024-02-15T09:06:03;16.20;;;9.53;;
17890;SDS011;9071;48.220;14.480;2024-02-15T09:11:07;26.13;;;13.33;;
17890;SDS011;9071;48.220;14.480;2024-02-15T09:16:13;18.57;;;10.17;;
17890;SDS011;9071;48.220;14.480;2024-02-15T09:21:15;24.70;;;10.83;;
17890;SDS011;9071;48.220;14.480;2024-02-15T09:26:17;18.47;;;11.07;;
17890;SDS011;9071;48.220;14.480;2024-02-15T09:31:21;25.53;;;11.27;;
17890;SDS011;9071;48.220;14.480;2024-02-15T09:36:25;24.77;;;12.13;;
17890;SDS011;9071;48.220;14.480;2024-02-15T09:41:28;19.10;;;12.90;;
17890;SDS011;9071;48.220;14.480;2024-02-15T09:46:33;24.23;;;12.93;;
17890;SDS011;9071;48.220;14.480;2024-02-15T09:51:39;16.60;;;11.87;;
17890;SDS011;9071;48.220;14.480;2024-02-15T09:56:42;19.30;;;11.30;;
17890;SDS011;9071;48.220;14.480;2024-02-15T10:01:47;21.63;;;12.33;;
17890;SDS011;9071;48.220;14.480;2024-02-15T10:06:50;18.17;;;10.60;;
17890;SDS011;9071;48.220;14.480;2024-02-15T10:11:53;17.80;;;10.40;;
17890;SDS011;9071;48.220;14.480;2024-02-15T10:17:04;19.40;;;10.63;;
17890;SDS011;9071;48.220;14.480;2024-02-15T10:22:10;16.70;;;11.03;;
17890;SDS011;9071;48.220;14.480;2024-02-15T10:27:14;15.90;;;11.53;;
17890;SDS011;9071;48.220;14.480;2024-02-15T10:32:31;15.10;;;10.70;;
17890;SDS011;9071;48.220;14.480;2024-02-15T10:37:39;17.50;;;10.70;;
17890;SDS011;9071;48.220;14.480;2024-02-15T10:42:42;18.33;;;11.37;;
17890;SDS011;9071;48.220;14.480;2024-02-15T10:47:47;18.87;;;12.60;;
17890;SDS011;9071;48.220;14.480;2024-02-15T10:52:51;21.43;;;11.77;;
17890;SDS011;9071;48.220;14.480;2024-02-15T10:57:56;22.77;;;13.10;;
17890;SDS011;9071;48.220;14.480;2024-02-15T11:03:05;17.37;;;11.67;;
17890;SDS011;9071;48.220;14.480;2024-02-15T11:08:13;18.70;;;11.50;;
17890;SDS011;9071;48.220;14.480;2024-02-15T11:13:17;18.57;;;12.10;;
17890;SDS011;9071;48.220;14.480;2024-02-15T11:23:45;16.23;;;10.63;;
17890;SDS011;9071;48.220;14.480;2024-02-15T11:28:47;15.80;;;9.80;;
17890;SDS011;9071;48.220;14.480;2024-02-15T11:33:52;14.03;;;10.10;;
17890;SDS011;9071;48.220;14.480;2024-02-15T11:38:54;13.93;;;9.27;;
17890;SDS011;9071;48.220;14.480;2024-02-15T11:43:56;16.43;;;8.60;;
17890;SDS011;9071;48.220;14.480;2024-02-15T11:49:00;14.70;;;8.93;;
17890;SDS011;9071;48.220;14.480;2024-02-15T11:54:04;10.98;;;8.07;;
17890;SDS011;9071;48.220;14.480;2024-02-15T11:59:08;8.07;;;4.53;;
17890;SDS011;9071;48.220;14.480;2024-02-15T12:04:20;7.00;;;4.50;;
17890;SDS011;9071;48.220;14.480;2024-02-15T12:09:39;6.20;;;4.55;;
17890;SDS011;9071;48.220;14.480;2024-02-15T12:14:59;6.65;;;4.10;;
17890;SDS011;9071;48.220;14.480;2024-02-15T12:20:20;8.23;;;4.67;;
17890;SDS011;9071;48.220;14.480;2024-02-15T12:25:24;5.15;;;3.83;;
17890;SDS011;9071;48.220;14.480;2024-02-15T12:30:32;5.65;;;3.58;;
17890;SDS011;9071;48.220;14.480;2024-02-15T12:35:38;5.82;;;3.60;;
17890;SDS011;9071;48.220;14.480;2024-02-15T12:40:40;4.72;;;3.70;;
17890;SDS011;9071;48.220;14.480;2024-02-15T12:45:42;6.72;;;3.88;;
17890;SDS011;9071;48.220;14.480;2024-02-15T12:50:45;5.70;;;3.80;;
17890;SDS011;9071;48.220;14.480;2024-02-15T12:55:52;4.05;;;3.33;;
17890;SDS011;9071;48.220;14.480;2024-02-15T13:00:56;7.05;;;4.03;;
17890;SDS011;9071;48.220;14.480;2024-02-15T13:06:00;6.40;;;3.47;;
17890;SDS011;9071;48.220;14.480;2024-02-15T13:11:02;5.65;;;3.92;;
17890;SDS011;9071;48.220;14.480;2024-02-15T13:16:05;5.85;;;3.50;;
17890;SDS011;9071;48.220;14.480;2024-02-15T13:21:09;4.68;;;3.35;;
17890;SDS011;9071;48.220;14.480;2024-02-15T13:26:11;5.93;;;3.28;;
17890;SDS011;9071;48.220;14.480;2024-02-15T13:31:13;7.47;;;3.22;;
17890;SDS011;9071;48.220;14.480;2024-02-15T13:36:17;9.23;;;3.30;;
17890;SDS011;9071;48.220;14.480;2024-02-15T13:41:20;4.82;;;3.13;;
17890;SDS011;9071;48.220;14.480;2024-02-15T13:46:22;3.10;;;2.42;;
17890;SDS011;9071;48.220;14.480;2024-02-15T13:51:26;3.92;;;2.30;;
17890;SDS011;9071;48.220;14.480;2024-02-15T13:56:28;6.20;;;3.20;;
17890;SDS011;9071;48.220;14.480;2024-02-15T14:01:31;3.92;;;2.65;;
17890;SDS011;9071;48.220;14.480;2024-02-15T14:06:35;6.15;;;2.60;;
17890;SDS011;9071;48.220;14.480;2024-02-15T14:11:40;2.22;;;1.73;;
17890;SDS011;9071;48.220;14.480;2024-02-15T14:16:42;3.15;;;2.05;;
17890;SDS011;9071;48.220;14.480;2024-02-15T14:21:45;2.10;;;1.60;;
17890;SDS011;9071;48.220;14.480;2024-02-15T14:26:47;1.35;;;1.25;;
17890;SDS011;9071;48.220;14.480;2024-02-15T14:31:52;2.65;;;1.30;;
17890;SDS011;9071;48.220;14.480;2024-02-15T14:37:13;4.32;;;1.40;;
17890;SDS011;9071;48.220;14.480;2024-02-15T14:42:17;2.88;;;1.20;;
17890;SDS011;9071;48.220;14.480;2024-02-15T14:47:19;3.22;;;1.45;;
17890;SDS011;9071;48.220;14.480;2024-02-15T14:52:23;2.90;;;1.73;;
17890;SDS011;9071;48.220;14.480;2024-02-15T14:57:26;8.00;;;3.50;;
17890;SDS011;9071;48.220;14.480;2024-02-15T15:02:28;7.05;;;3.78;;
17890;SDS011;9071;48.220;14.480;2024-02-15T15:07:32;10.60;;;3.95;;
17890;SDS011;9071;48.220;14.480;2024-02-15T15:13:06;10.75;;;4.20;;
17890;SDS011;9071;48.220;14.480;2024-02-15T15:18:09;8.47;;;3.73;;
17890;SDS011;9071;48.220;14.480;2024-02-15T15:23:13;6.97;;;3.37;;
17890;SDS011;9071;48.220;14.480;2024-02-15T15:28:16;10.93;;;3.00;;
17890;SDS011;9071;48.220;14.480;2024-02-15T15:33:18;8.77;;;3.47;;
17890;SDS011;9071;48.220;14.480;2024-02-15T15:38:22;6.20;;;3.90;;
17890;SDS011;9071;48.220;14.480;2024-02-15T15:43:24;8.03;;;3.90;;
17890;SDS011;9071;48.220;14.480;2024-02-15T15:48:26;12.40;;;4.00;;
17890;SDS011;9071;48.220;14.480;2024-02-15T15:53:29;10.73;;;3.73;;
17890;SDS011;9071;48.220;14.480;2024-02-15T15:58:32;12.93;;;3.00;;
17890;SDS011;9071;48.220;14.480;2024-02-15T16:03:34;10.10;;;4.10;;
17890;SDS011;9071;48.220;14.480;2024-02-15T16:08:37;8.63;;;3.60;;
17890;SDS011;9071;48.220;14.480;2024-02-15T16:13:39;10.07;;;3.77;;
17890;SDS011;9071;48.220;14.480;2024-02-15T16:18:42;9.33;;;3.40;;
17890;SDS011;9071;48.220;14.480;2024-02-15T16:23:46;7.67;;;3.50;;
17890;SDS011;9071;48.220;14.480;2024-02-15T16:28:49;6.07;;;3.67;;
17890;SDS011;9071;48.220;14.480;2024-02-15T16:33:51;8.50;;;4.20;;
17890;SDS011;9071;48.220;14.480;2024-02-15T16:38:54;9.20;;;5.10;;
17890;SDS011;9071;48.220;14.480;2024-02-15T16:43:56;8.20;;;5.80;;
17890;SDS011;9071;48.220;14.480;2024-02-15T16:48:58;9.43;;;5.47;;
17890;SDS011;9071;48.220;14.480;2024-02-15T16:54:02;8.37;;;5.43;;
17890;SDS011;9071;48.220;14.480;2024-02-15T16:59:05;9.17;;;5.80;;
17890;SDS011;9071;48.220;14.480;2024-02-15T17:04:07;11.83;;;5.73;;
17890;SDS011;9071;48.220;14.480;2024-02-15T17:09:10;10.83;;;5.93;;
17890;SDS011;9071;48.220;14.480;2024-02-15T17:14:12;17.67;;;9.37;;
17890;SDS011;9071;48.220;14.480;2024-02-15T17:19:15;14.83;;;7.00;;
17890;SDS011;9071;48.220;14.480;2024-02-15T17:24:18;13.83;;;6.57;;
17890;SDS011;9071;48.220;14.480;2024-02-15T17:29:20;13.23;;;6.10;;
17890;SDS011;9071;48.220;14.480;2024-02-15T17:34:23;14.50;;;6.20;;
17890;SDS011;9071;48.220;14.480;2024-02-15T17:39:27;17.43;;;5.93;;
17890;SDS011;9071;48.220;14.480;2024-02-15T17:44:29;13.23;;;6.80;;
17890;SDS011;9071;48.220;14.480;2024-02-15T17:49:31;15.73;;;9.03;;
17890;SDS011;9071;48.220;14.480;2024-02-15T17:54:35;16.57;;;9.07;;
17890;SDS011;9071;48.220;14.480;2024-02-15T17:59:37;18.53;;;9.70;;
17890;SDS011;9071;48.220;14.480;2024-02-15T18:04:39;20.37;;;10.90;;
17890;SDS011;9071;48.220;14.480;2024-02-15T18:09:43;16.57;;;9.97;;
17890;SDS011;9071;48.220;14.480;2024-02-15T18:14:46;19.87;;;9.50;;
17890;SDS011;9071;48.220;14.480;2024-02-15T18:19:50;17.63;;;10.80;;
17890;SDS011;9071;48.220;14.480;2024-02-15T18:24:54;15.43;;;10.07;;
17890;SDS011;9071;48.220;14.480;2024-02-15T18:29:56;15.17;;;9.47;;
17890;SDS011;9071;48.220;14.480;2024-02-15T18:34:58;15.60;;;10.53;;
17890;SDS011;9071;48.220;14.480;2024-02-15T18:40:02;13.97;;;10.10;;
17890;SDS011;9071;48.220;14.480;2024-02-15T18:45:07;17.80;;;10.00;;
17890;SDS011;9071;48.220;14.480;2024-02-15T18:50:09;13.23;;;9.43;;
17890;SDS011;9071;48.220;14.480;2024-02-15T18:55:13;18.73;;;11.97;;
17890;SDS011;9071;48.220;14.480;2024-02-15T19:00:15;24.50;;;15.60;;
17890;SDS011;9071;48.220;14.480;2024-02-15T19:05:20;26.00;;;13.83;;
17890;SDS011;9071;48.220;14.480;2024-02-15T19:10:23;18.77;;;12.03;;
17890;SDS011;9071;48.220;14.480;2024-02-15T19:15:25;22.67;;;12.23;;
17890;SDS011;9071;48.220;14.480;2024-02-15T19:20:28;20.53;;;12.13;;
17890;SDS011;9071;48.220;14.480;2024-02-15T19:25:32;21.37;;;11.40;;
17890;SDS011;9071;48.220;14.480;2024-02-15T19:30:34;19.70;;;11.20;;
17890;SDS011;9071;48.220;14.480;2024-02-15T19:35:36;20.97;;;11.80;;
17890;SDS011;9071;48.220;14.480;2024-02-15T19:40:39;25.27;;;14.07;;
17890;SDS011;9071;48.220;14.480;2024-02-15T19:45:42;28.73;;;14.37;;
17890;SDS011;9071;48.220;14.480;2024-02-15T19:50:44;32.13;;;15.50;;
17890;SDS011;9071;48.220;14.480;2024-02-15T19:55:47;26.03;;;13.90;;
17890;SDS011;9071;48.220;14.480;2024-02-15T20:00:49;22.03;;;13.17;;
17890;SDS011;9071;48.220;14.480;2024-02-15T20:05:51;23.10;;;14.30;;
17890;SDS011;9071;48.220;14.480;2024-02-15T20:11:00;35.67;;;14.07;;
17890;SDS011;9071;48.220;14.480;2024-02-15T20:16:02;21.83;;;13.67;;
17890;SDS011;9071;48.220;14.480;2024-02-15T20:21:04;24.77;;;14.47;;
17890;SDS011;9071;48.220;14.480;2024-02-15T20:26:11;25.53;;;14.60;;
17890;SDS011;9071;48.220;14.480;2024-02-15T20:31:14;26.37;;;14.30;;
17890;SDS011;9071;48.220;14.480;2024-02-15T20:36:17;30.63;;;16.13;;
17890;SDS011;9071;48.220;14.480;2024-02-15T20:41:21;24.23;;;15.03;;
17890;SDS011;9071;48.220;14.480;2024-02-15T20:46:27;22.83;;;14.37;;
17890;SDS011;9071;48.220;14.480;2024-02-15T20:51:29;23.03;;;14.60;;
17890;SDS011;9071;48.220;14.480;2024-02-15T20:56:33;27.27;;;16.10;;
17890;SDS011;9071;48.220;14.480;2024-02-15T21:01:36;26.40;;;14.97;;
17890;SDS011;9071;48.220;14.480;2024-02-15T21:06:38;24.40;;;13.70;;
17890;SDS011;9071;48.220;14.480;2024-02-15T21:11:42;25.00;;;14.63;;
17890;SDS011;9071;48.220;14.480;2024-02-15T21:16:44;21.53;;;13.47;;
17890;SDS011;9071;48.220;14.480;2024-02-15T21:21:47;24.30;;;13.93;;
17890;SDS011;9071;48.220;14.480;2024-02-15T21:26:51;21.47;;;13.73;;
17890;SDS011;9071;48.220;14.480;2024-02-15T21:31:53;21.40;;;12.63;;
17890;SDS011;9071;48.220;14.480;2024-02-15T21:36:55;25.37;;;15.20;;
17890;SDS011;9071;48.220;14.480;2024-02-15T21:41:59;27.90;;;16.10;;
17890;SDS011;9071;48.220;14.480;2024-02-15T21:47:01;26.23;;;14.73;;
17890;SDS011;9071;48.220;14.480;2024-02-15T21:52:04;22.97;;;14.77;;
17890;SDS011;9071;48.220;14.480;2024-02-15T21:57:09;27.43;;;16.77;;
17890;SDS011;9071;48.220;14.480;2024-02-15T22:02:12;29.40;;;17.03;;
17890;SDS011;9071;48.220;14.480;2024-02-15T22:07:14;28.50;;;16.23;;
17890;SDS011;9071;48.220;14.480;2024-02-15T22:12:21;38.83;;;21.67;;
17890;SDS011;9071;48.220;14.480;2024-02-15T22:17:23;24.40;;;14.80;;
17890;SDS011;9071;48.220;14.480;2024-02-15T22:22:25;39.47;;;20.60;;
17890;SDS011;9071;48.220;14.480;2024-02-15T22:27:29;34.73;;;18.33;;
17890;SDS011;9071;48.220;14.480;2024-02-15T22:32:31;22.07;;;14.93;;
17890;SDS011;9071;48.220;14.480;2024-02-15T22:37:33;25.23;;;16.33;;
17890;SDS011;9071;48.220;14.480;2024-02-15T22:42:36;31.33;;;18.23;;
17890;SDS011;9071;48.220;14.480;2024-02-15T22:47:38;29.03;;;19.23;;
17890;SDS011;9071;48.220;14.480;2024-02-15T22:52:42;27.83;;;18.67;;
17890;SDS011;9071;48.220;14.480;2024-02-15T22:57:46;29.43;;;17.90;;
17890;SDS011;9071;48.220;14.480;2024-02-15T23:02:48;27.90;;;17.27;;
17890;SDS011;9071;48.220;14.480;2024-02-15T23:07:51;25.67;;;17.00;;
17890;SDS011;9071;48.220;14.480;2024-02-15T23:12:54;29.77;;;19.87;;
17890;SDS011;9071;48.220;14.480;2024-02-15T23:17:56;35.20;;;19.57;;
17890;SDS011;9071;48.220;14.480;2024-02-15T23:22:58;28.67;;;17.97;;
17890;SDS011;9071;48.220;14.480;2024-02-15T23:28:02;31.67;;;20.97;;
17890;SDS011;9071;48.220;14.480;2024-02-15T23:33:04;41.30;;;24.13;;
17890;SDS011;9071;48.220;14.480;2024-02-15T23:38:07;47.93;;;25.50;;
17890;SDS011;9071;48.220;14.480;2024-02-15T23:43:28;44.67;;;26.73;;
17890;SDS011;9071;48.220;14.480;2024-02-15T23:48:30;45.83;;;27.23;;
17890;SDS011;9071;48.220;14.480;2024-02-15T23:53:32;38.23;;;24.20;;
17890;SDS011;9071;48.220;14.480;2024-02-15T23:58:35;38.87;;;23.70;;
